sensor_id;sensor_type;location;lat;lon;timestamp;pressure;altitude;pressure_sealevel;temperature;humidity
76864;BME280;65834;52.364;9.754;2023-02-24T00:00:39;100653.13;;;3.68;82.57
76864;BME280;65834;52.364;9.754;2023-02-24T00:03:17;100644.25;;;3.77;82.27
76864;BME280;65834;52.364;9.754;2023-02-24T00:05:46;100641.28;;;3.80;81.94
76864;BME280;65834;52.364;9.754;2023-02-24T00:08:16;100641.69;;;3.85;81.96
76864;BME280;65834;52.364;9.754;2023-02-24T00:10:46;100634.50;;;3.76;82.40
76864;BME280;65834;52.364;9.754;2023-02-24T00:13:18;100631.31;;;3.63;83.18
76864;BME280;65834;52.364;9.754;2023-02-24T00:15:58;100620.34;;;3.56;83.39
76864;BME280;65834;52.364;9.754;2023-02-24T00:18:28;100623.59;;;3.60;83.82
76864;BME280;65834;52.364;9.754;2023-02-24T00:21:02;100617.38;;;3.59;84.01
76864;BME280;65834;52.364;9.754;2023-02-24T00:23:34;100618.94;;;3.62;84.10
76864;BME280;65834;52.364;9.754;2023-02-24T00:26:07;100616.09;;;3.63;83.50
76864;BME280;65834;52.364;9.754;2023-02-24T00:28:39;100611.44;;;3.75;83.59
76864;BME280;65834;52.364;9.754;2023-02-24T00:31:11;100614.63;;;3.88;83.49
76864;BME280;65834;52.364;9.754;2023-02-24T00:33:43;100613.66;;;3.89;83.26
76864;BME280;65834;52.364;9.754;2023-02-24T00:36:17;100607.47;;;3.79;83.28
76864;BME280;65834;52.364;9.754;2023-02-24T00:38:50;100615.47;;;3.89;83.45
76864;BME280;65834;52.364;9.754;2023-02-24T00:41:22;100595.63;;;3.91;83.32
76864;BME280;65834;52.364;9.754;2023-02-24T00:43:58;100606.78;;;3.87;83.24
76864;BME280;65834;52.364;9.754;2023-02-24T00:46:33;100593.66;;;3.93;83.18
76864;BME280;65834;52.364;9.754;2023-02-24T00:49:06;100591.94;;;4.02;82.81
76864;BME280;65834;52.364;9.754;2023-02-24T00:51:38;100585.69;;;4.11;81.99
76864;BME280;65834;52.364;9.754;2023-02-24T00:54:08;100590.66;;;4.06;82.12
76864;BME280;65834;52.364;9.754;2023-02-24T00:56:40;100585.69;;;4.11;82.11
76864;BME280;65834;52.364;9.754;2023-02-24T00:59:15;100572.75;;;4.06;81.72
76864;BME280;65834;52.364;9.754;2023-02-24T01:01:45;100582.75;;;4.04;81.97
76864;BME280;65834;52.364;9.754;2023-02-24T01:04:17;100574.94;;;3.93;81.29
76864;BME280;65834;52.364;9.754;2023-02-24T01:06:48;100572.06;;;4.04;81.27
76864;BME280;65834;52.364;9.754;2023-02-24T01:09:27;100575.31;;;3.98;81.33
76864;BME280;65834;52.364;9.754;2023-02-24T01:11:57;100572.25;;;3.93;80.97
76864;BME280;65834;52.364;9.754;2023-02-24T01:14:46;100573.19;;;4.02;81.23
76864;BME280;65834;52.364;9.754;2023-02-24T01:17:17;100563.84;;;4.15;81.18
76864;BME280;65834;52.364;9.754;2023-02-24T01:19:47;100563.97;;;4.23;80.84
76864;BME280;65834;52.364;9.754;2023-02-24T01:22:19;100558.91;;;4.20;80.95
76864;BME280;65834;52.364;9.754;2023-02-24T01:24:49;100556.34;;;4.19;80.92
76864;BME280;65834;52.364;9.754;2023-02-24T01:27:19;100555.06;;;4.23;80.11
76864;BME280;65834;52.364;9.754;2023-02-24T01:29:51;100552.31;;;4.15;80.60
76864;BME280;65834;52.364;9.754;2023-02-24T01:32:20;100548.50;;;4.17;80.30
76864;BME280;65834;52.364;9.754;2023-02-24T01:34:51;100548.31;;;4.19;80.41
76864;BME280;65834;52.364;9.754;2023-02-24T01:37:21;100545.94;;;4.16;80.49
76864;BME280;65834;52.364;9.754;2023-02-24T01:39:51;100540.22;;;4.11;80.54
76864;BME280;65834;52.364;9.754;2023-02-24T01:42:21;100534.16;;;4.09;80.32
76864;BME280;65834;52.364;9.754;2023-02-24T01:45:11;100528.06;;;4.16;80.44
76864;BME280;65834;52.364;9.754;2023-02-24T01:47:41;100528.34;;;4.13;80.10
76864;BME280;65834;52.364;9.754;2023-02-24T01:50:14;100518.59;;;4.22;80.14
76864;BME280;65834;52.364;9.754;2023-02-24T01:52:49;100516.19;;;4.19;80.13
76864;BME280;65834;52.364;9.754;2023-02-24T01:55:23;100514.25;;;4.21;80.37
76864;BME280;65834;52.364;9.754;2023-02-24T01:58:00;100520.72;;;4.18;80.14
76864;BME280;65834;52.364;9.754;2023-02-24T02:00:32;100517.25;;;4.08;80.35
76864;BME280;65834;52.364;9.754;2023-02-24T02:03:21;100502.50;;;4.04;79.87
76864;BME280;65834;52.364;9.754;2023-02-24T02:05:55;100503.34;;;4.05;79.85
76864;BME280;65834;52.364;9.754;2023-02-24T02:08:27;100505.03;;;4.06;80.11
76864;BME280;65834;52.364;9.754;2023-02-24T02:11:03;100500.50;;;4.06;80.07
76864;BME280;65834;52.364;9.754;2023-02-24T02:13:34;100495.84;;;4.08;80.15
76864;BME280;65834;52.364;9.754;2023-02-24T02:16:20;100496.50;;;3.93;78.92
76864;BME280;65834;52.364;9.754;2023-02-24T02:19:03;100484.34;;;3.98;79.37
76864;BME280;65834;52.364;9.754;2023-02-24T02:22:00;100486.28;;;4.06;79.25
76864;BME280;65834;52.364;9.754;2023-02-24T02:24:40;100477.00;;;4.00;79.51
76864;BME280;65834;52.364;9.754;2023-02-24T02:27:27;100469.78;;;3.83;78.55
76864;BME280;65834;52.364;9.754;2023-02-24T02:36:29;100451.59;;;3.87;79.33
76864;BME280;65834;52.364;9.754;2023-02-24T02:39:07;100447.78;;;3.89;79.51
76864;BME280;65834;52.364;9.754;2023-02-24T02:41:46;100445.41;;;3.86;79.46
76864;BME280;65834;52.364;9.754;2023-02-24T02:44:22;100444.72;;;3.84;79.06
76864;BME280;65834;52.364;9.754;2023-02-24T02:46:58;100448.78;;;3.88;78.83
76864;BME280;65834;52.364;9.754;2023-02-24T02:49:31;100447.66;;;3.91;78.71
76864;BME280;65834;52.364;9.754;2023-02-24T02:52:10;100447.41;;;3.84;78.53
76864;BME280;65834;52.364;9.754;2023-02-24T02:54:47;100439.84;;;3.97;78.16
76864;BME280;65834;52.364;9.754;2023-02-24T02:57:20;100438.38;;;3.85;78.09
76864;BME280;65834;52.364;9.754;2023-02-24T02:59:55;100434.22;;;3.73;78.50
76864;BME280;65834;52.364;9.754;2023-02-24T03:02:28;100421.59;;;3.93;78.59
76864;BME280;65834;52.364;9.754;2023-02-24T03:05:07;100413.75;;;3.81;78.29
76864;BME280;65834;52.364;9.754;2023-02-24T03:07:44;100425.75;;;3.77;78.18
76864;BME280;65834;52.364;9.754;2023-02-24T03:10:18;100421.56;;;3.75;78.05
76864;BME280;65834;52.364;9.754;2023-02-24T03:12:52;100409.66;;;3.60;78.81
76864;BME280;65834;52.364;9.754;2023-02-24T03:15:25;100403.66;;;3.48;78.18
76864;BME280;65834;52.364;9.754;2023-02-24T03:18:01;100403.50;;;3.50;78.32
76864;BME280;65834;52.364;9.754;2023-02-24T03:20:39;100399.00;;;3.50;78.28
76864;BME280;65834;52.364;9.754;2023-02-24T03:23:17;100391.88;;;3.41;77.71
76864;BME280;65834;52.364;9.754;2023-02-24T03:25:53;100384.84;;;3.40;77.47
76864;BME280;65834;52.364;9.754;2023-02-24T03:28:30;100395.66;;;3.39;76.76
76864;BME280;65834;52.364;9.754;2023-02-24T03:31:07;100383.72;;;3.33;76.75
76864;BME280;65834;52.364;9.754;2023-02-24T03:33:42;100379.22;;;3.34;76.71
76864;BME280;65834;52.364;9.754;2023-02-24T03:36:13;100384.84;;;3.40;76.88
76864;BME280;65834;52.364;9.754;2023-02-24T03:38:46;100383.28;;;3.47;75.66
76864;BME280;65834;52.364;9.754;2023-02-24T03:41:17;100377.75;;;3.49;74.59
76864;BME280;65834;52.364;9.754;2023-02-24T03:43:47;100367.19;;;3.57;74.42
76864;BME280;65834;52.364;9.754;2023-02-24T03:46:21;100363.25;;;3.51;72.01
76864;BME280;65834;52.364;9.754;2023-02-24T03:48:54;100364.38;;;3.49;72.12
76864;BME280;65834;52.364;9.754;2023-02-24T03:51:27;100365.56;;;3.37;71.63
76864;BME280;65834;52.364;9.754;2023-02-24T03:54:14;100356.28;;;3.41;71.14
76864;BME280;65834;52.364;9.754;2023-02-24T03:56:53;100357.22;;;3.49;71.21
76864;BME280;65834;52.364;9.754;2023-02-24T03:59:35;100361.88;;;3.47;71.01
76864;BME280;65834;52.364;9.754;2023-02-24T04:02:15;100364.63;;;3.55;70.79
76864;BME280;65834;52.364;9.754;2023-02-24T04:04:53;100357.84;;;3.61;70.48
76864;BME280;65834;52.364;9.754;2023-02-24T04:07:39;100359.72;;;3.51;70.46
76864;BME280;65834;52.364;9.754;2023-02-24T04:10:25;100360.81;;;3.58;71.25
76864;BME280;65834;52.364;9.754;2023-02-24T04:13:00;100354.94;;;3.54;70.94
76864;BME280;65834;52.364;9.754;2023-02-24T04:15:37;100358.56;;;3.63;71.29
76864;BME280;65834;52.364;9.754;2023-02-24T04:18:14;100352.25;;;3.54;71.00
76864;BME280;65834;52.364;9.754;2023-02-24T04:20:46;100352.81;;;3.58;71.33
76864;BME280;65834;52.364;9.754;2023-02-24T04:23:24;100348.31;;;3.58;71.16
76864;BME280;65834;52.364;9.754;2023-02-24T04:25:57;100342.63;;;3.44;71.22
76864;BME280;65834;52.364;9.754;2023-02-24T04:28:28;100338.63;;;3.48;71.20
76864;BME280;65834;52.364;9.754;2023-02-24T04:31:01;100338.00;;;3.36;71.29
76864;BME280;65834;52.364;9.754;2023-02-24T04:33:34;100330.78;;;3.46;72.02
76864;BME280;65834;52.364;9.754;2023-02-24T04:36:05;100329.69;;;3.39;71.35
76864;BME280;65834;52.364;9.754;2023-02-24T04:38:37;100332.66;;;3.36;71.85
76864;BME280;65834;52.364;9.754;2023-02-24T04:41:10;100330.81;;;3.37;72.14
76864;BME280;65834;52.364;9.754;2023-02-24T04:43:43;100325.88;;;3.42;72.11
76864;BME280;65834;52.364;9.754;2023-02-24T04:46:13;100326.03;;;3.40;72.35
76864;BME280;65834;52.364;9.754;2023-02-24T04:48:43;100322.91;;;3.45;72.16
76864;BME280;65834;52.364;9.754;2023-02-24T04:51:13;100319.72;;;3.41;71.51
76864;BME280;65834;52.364;9.754;2023-02-24T04:53:42;100309.16;;;3.40;71.22
76864;BME280;65834;52.364;9.754;2023-02-24T04:56:14;100303.72;;;3.32;71.04
76864;BME280;65834;52.364;9.754;2023-02-24T04:58:44;100305.53;;;3.31;71.32
76864;BME280;65834;52.364;9.754;2023-02-24T05:01:14;100307.06;;;3.34;70.89
76864;BME280;65834;52.364;9.754;2023-02-24T05:03:44;100290.19;;;3.33;70.66
76864;BME280;65834;52.364;9.754;2023-02-24T05:06:15;100280.91;;;3.37;71.75
76864;BME280;65834;52.364;9.754;2023-02-24T05:08:44;100274.16;;;3.33;71.44
76864;BME280;65834;52.364;9.754;2023-02-24T05:11:16;100272.56;;;3.40;71.73
76864;BME280;65834;52.364;9.754;2023-02-24T05:13:46;100268.38;;;3.38;72.07
76864;BME280;65834;52.364;9.754;2023-02-24T05:16:17;100258.91;;;3.43;72.25
76864;BME280;65834;52.364;9.754;2023-02-24T05:18:48;100267.59;;;3.45;72.72
76864;BME280;65834;52.364;9.754;2023-02-24T05:21:37;100251.97;;;3.50;71.71
76864;BME280;65834;52.364;9.754;2023-02-24T05:24:05;100243.47;;;3.55;71.65
76864;BME280;65834;52.364;9.754;2023-02-24T05:26:39;100246.47;;;3.52;71.95
76864;BME280;65834;52.364;9.754;2023-02-24T05:29:10;100240.97;;;3.53;71.41
76864;BME280;65834;52.364;9.754;2023-02-24T05:31:40;100238.50;;;3.42;71.17
76864;BME280;65834;52.364;9.754;2023-02-24T05:34:10;100229.63;;;3.42;71.79
76864;BME280;65834;52.364;9.754;2023-02-24T05:36:42;100232.09;;;3.35;70.75
76864;BME280;65834;52.364;9.754;2023-02-24T05:39:12;100216.28;;;3.42;70.53
76864;BME280;65834;52.364;9.754;2023-02-24T05:41:47;100212.91;;;3.40;70.45
76864;BME280;65834;52.364;9.754;2023-02-24T05:44:21;100214.97;;;3.46;69.57
76864;BME280;65834;52.364;9.754;2023-02-24T05:46:55;100207.28;;;3.43;69.85
76864;BME280;65834;52.364;9.754;2023-02-24T05:49:26;100205.69;;;3.50;69.96
76864;BME280;65834;52.364;9.754;2023-02-24T05:52:00;100200.34;;;3.50;70.03
76864;BME280;65834;52.364;9.754;2023-02-24T05:54:36;100188.44;;;3.44;69.50
76864;BME280;65834;52.364;9.754;2023-02-24T05:57:10;100185.75;;;3.44;69.86
76864;BME280;65834;52.364;9.754;2023-02-24T05:59:43;100175.13;;;3.52;69.20
76864;BME280;65834;52.364;9.754;2023-02-24T06:02:14;100173.97;;;3.55;69.02
76864;BME280;65834;52.364;9.754;2023-02-24T06:04:53;100167.03;;;3.44;68.88
76864;BME280;65834;52.364;9.754;2023-02-24T06:07:25;100168.69;;;3.45;68.55
76864;BME280;65834;52.364;9.754;2023-02-24T06:10:00;100151.75;;;3.37;68.29
76864;BME280;65834;52.364;9.754;2023-02-24T06:12:37;100164.75;;;3.32;68.38
76864;BME280;65834;52.364;9.754;2023-02-24T06:15:08;100151.81;;;3.45;68.31
76864;BME280;65834;52.364;9.754;2023-02-24T06:17:38;100150.59;;;3.39;67.61
76864;BME280;65834;52.364;9.754;2023-02-24T06:20:10;100145.44;;;3.38;67.42
76864;BME280;65834;52.364;9.754;2023-02-24T06:22:41;100140.38;;;3.35;67.89
76864;BME280;65834;52.364;9.754;2023-02-24T06:25:11;100131.59;;;3.42;67.12
76864;BME280;65834;52.364;9.754;2023-02-24T06:27:43;100126.94;;;3.44;67.10
76864;BME280;65834;52.364;9.754;2023-02-24T06:30:19;100128.78;;;3.44;67.24
76864;BME280;65834;52.364;9.754;2023-02-24T06:32:50;100120.00;;;3.34;67.10
76864;BME280;65834;52.364;9.754;2023-02-24T06:35:20;100115.09;;;3.47;67.08
76864;BME280;65834;52.364;9.754;2023-02-24T06:37:49;100120.34;;;3.39;67.09
76864;BME280;65834;52.364;9.754;2023-02-24T06:40:21;100113.03;;;3.41;67.15
76864;BME280;65834;52.364;9.754;2023-02-24T06:42:53;100109.75;;;3.47;66.92
76864;BME280;65834;52.364;9.754;2023-02-24T06:45:23;100111.72;;;3.45;66.52
76864;BME280;65834;52.364;9.754;2023-02-24T06:47:52;100099.72;;;3.49;66.86
76864;BME280;65834;52.364;9.754;2023-02-24T06:50:23;100096.91;;;3.50;67.41
76864;BME280;65834;52.364;9.754;2023-02-24T06:52:54;100095.28;;;3.57;66.95
76864;BME280;65834;52.364;9.754;2023-02-24T06:55:27;100091.25;;;3.53;66.90
76864;BME280;65834;52.364;9.754;2023-02-24T06:58:03;100100.81;;;3.56;66.52
76864;BME280;65834;52.364;9.754;2023-02-24T07:00:33;100091.09;;;3.55;66.78
76864;BME280;65834;52.364;9.754;2023-02-24T07:03:07;100088.28;;;3.56;66.84
76864;BME280;65834;52.364;9.754;2023-02-24T07:05:47;100091.66;;;3.66;67.91
76864;BME280;65834;52.364;9.754;2023-02-24T07:08:22;100088.06;;;3.75;66.22
76864;BME280;65834;52.364;9.754;2023-02-24T07:10:53;100090.72;;;3.75;66.54
76864;BME280;65834;52.364;9.754;2023-02-24T07:13:26;100085.44;;;3.83;65.57
76864;BME280;65834;52.364;9.754;2023-02-24T07:15:58;100078.50;;;3.73;66.09
76864;BME280;65834;52.364;9.754;2023-02-24T07:18:32;100075.47;;;3.68;66.15
76864;BME280;65834;52.364;9.754;2023-02-24T07:21:02;100071.34;;;3.73;65.70
76864;BME280;65834;52.364;9.754;2023-02-24T07:23:38;100070.38;;;3.82;65.46
76864;BME280;65834;52.364;9.754;2023-02-24T07:26:08;100062.53;;;3.81;65.94
76864;BME280;65834;52.364;9.754;2023-02-24T07:28:42;100062.31;;;3.74;65.71
76864;BME280;65834;52.364;9.754;2023-02-24T07:31:15;100056.88;;;3.84;65.24
76864;BME280;65834;52.364;9.754;2023-02-24T07:33:47;100056.03;;;3.83;65.12
76864;BME280;65834;52.364;9.754;2023-02-24T07:36:18;100044.06;;;3.70;65.09
76864;BME280;65834;52.364;9.754;2023-02-24T07:38:51;100046.91;;;3.68;65.04
76864;BME280;65834;52.364;9.754;2023-02-24T07:41:21;100035.94;;;3.79;64.37
76864;BME280;65834;52.364;9.754;2023-02-24T07:43:54;100042.91;;;3.72;64.60
76864;BME280;65834;52.364;9.754;2023-02-24T07:46:26;100027.59;;;3.82;64.80
76864;BME280;65834;52.364;9.754;2023-02-24T07:48:56;100025.75;;;3.83;64.38
76864;BME280;65834;52.364;9.754;2023-02-24T07:51:27;100026.63;;;3.92;64.87
76864;BME280;65834;52.364;9.754;2023-02-24T07:53:59;100014.09;;;3.92;64.02
76864;BME280;65834;52.364;9.754;2023-02-24T07:56:30;100010.75;;;3.90;64.25
76864;BME280;65834;52.364;9.754;2023-02-24T07:59:03;100008.28;;;3.97;64.33
76864;BME280;65834;52.364;9.754;2023-02-24T08:01:36;100013.13;;;3.93;64.66
76864;BME280;65834;52.364;9.754;2023-02-24T08:04:16;99997.34;;;3.82;63.98
76864;BME280;65834;52.364;9.754;2023-02-24T08:06:49;99995.03;;;3.87;64.68
76864;BME280;65834;52.364;9.754;2023-02-24T08:09:22;100000.53;;;3.86;64.19
76864;BME280;65834;52.364;9.754;2023-02-24T08:12:14;99988.88;;;3.95;64.09
76864;BME280;65834;52.364;9.754;2023-02-24T08:14:51;99984.28;;;3.79;64.42
76864;BME280;65834;52.364;9.754;2023-02-24T08:17:26;99984.34;;;3.87;64.50
76864;BME280;65834;52.364;9.754;2023-02-24T08:19:55;99973.44;;;3.80;64.59
76864;BME280;65834;52.364;9.754;2023-02-24T08:22:48;99975.81;;;3.92;64.65
76864;BME280;65834;52.364;9.754;2023-02-24T08:25:20;99979.19;;;4.02;64.59
76864;BME280;65834;52.364;9.754;2023-02-24T08:27:52;99967.53;;;4.11;64.42
76864;BME280;65834;52.364;9.754;2023-02-24T08:30:39;99960.88;;;4.15;64.56
76864;BME280;65834;52.364;9.754;2023-02-24T08:33:13;99962.41;;;3.83;64.75
76864;BME280;65834;52.364;9.754;2023-02-24T08:35:43;99960.59;;;3.92;65.14
76864;BME280;65834;52.364;9.754;2023-02-24T08:38:15;99959.28;;;3.96;65.54
76864;BME280;65834;52.364;9.754;2023-02-24T08:40:47;99950.22;;;3.89;65.95
76864;BME280;65834;52.364;9.754;2023-02-24T08:43:25;99950.56;;;3.86;66.80
76864;BME280;65834;52.364;9.754;2023-02-24T08:46:12;99942.59;;;4.02;69.92
76864;BME280;65834;52.364;9.754;2023-02-24T08:48:46;99942.94;;;4.15;70.13
76864;BME280;65834;52.364;9.754;2023-02-24T08:51:18;99939.13;;;4.34;68.46
76864;BME280;65834;52.364;9.754;2023-02-24T08:53:50;99942.94;;;4.07;69.32
76864;BME280;65834;52.364;9.754;2023-02-24T08:56:23;99948.09;;;3.59;70.60
76864;BME280;65834;52.364;9.754;2023-02-24T08:58:54;99941.16;;;3.48;72.14
76864;BME280;65834;52.364;9.754;2023-02-24T09:01:35;99939.19;;;3.50;72.94
76864;BME280;65834;52.364;9.754;2023-02-24T09:04:07;99937.66;;;3.48;73.13
76864;BME280;65834;52.364;9.754;2023-02-24T09:06:40;99924.59;;;3.45;74.03
76864;BME280;65834;52.364;9.754;2023-02-24T09:09:11;99930.69;;;3.55;74.51
76864;BME280;65834;52.364;9.754;2023-02-24T09:11:50;99911.63;;;3.50;74.53
76864;BME280;65834;52.364;9.754;2023-02-24T09:14:24;99910.38;;;3.70;74.84
76864;BME280;65834;52.364;9.754;2023-02-24T09:16:58;99903.59;;;3.50;74.28
76864;BME280;65834;52.364;9.754;2023-02-24T09:19:35;99893.16;;;3.39;75.45
76864;BME280;65834;52.364;9.754;2023-02-24T09:22:19;99894.81;;;3.65;74.35
76864;BME280;65834;52.364;9.754;2023-02-24T09:25:00;99895.59;;;3.58;74.94
76864;BME280;65834;52.364;9.754;2023-02-24T09:27:42;99890.06;;;3.51;74.69
76864;BME280;65834;52.364;9.754;2023-02-24T09:30:13;99883.38;;;3.47;75.40
76864;BME280;65834;52.364;9.754;2023-02-24T09:33:11;99881.41;;;3.57;75.89
76864;BME280;65834;52.364;9.754;2023-02-24T09:35:50;99876.50;;;3.45;75.75
76864;BME280;65834;52.364;9.754;2023-02-24T09:38:29;99865.00;;;3.52;76.47
76864;BME280;65834;52.364;9.754;2023-02-24T09:41:20;99864.53;;;3.57;76.29
76864;BME280;65834;52.364;9.754;2023-02-24T09:44:03;99867.50;;;3.46;75.67
76864;BME280;65834;52.364;9.754;2023-02-24T09:46:37;99863.94;;;3.37;76.71
76864;BME280;65834;52.364;9.754;2023-02-24T09:49:25;99855.44;;;3.42;77.53
76864;BME280;65834;52.364;9.754;2023-02-24T09:52:10;99846.78;;;3.48;76.55
76864;BME280;65834;52.364;9.754;2023-02-24T09:54:46;99831.84;;;3.79;75.76
76864;BME280;65834;52.364;9.754;2023-02-24T09:57:39;99839.38;;;3.83;76.29
76864;BME280;65834;52.364;9.754;2023-02-24T10:00:34;99831.84;;;3.79;76.94
76864;BME280;65834;52.364;9.754;2023-02-24T10:03:13;99835.69;;;3.84;76.24
76864;BME280;65834;52.364;9.754;2023-02-24T10:06:17;99821.00;;;3.89;76.42
76864;BME280;65834;52.364;9.754;2023-02-24T10:08:53;99823.78;;;3.63;76.72
76864;BME280;65834;52.364;9.754;2023-02-24T10:11:23;99817.81;;;3.77;76.41
76864;BME280;65834;52.364;9.754;2023-02-24T10:14:02;99813.38;;;3.52;77.64
76864;BME280;65834;52.364;9.754;2023-02-24T10:16:38;99806.78;;;3.72;77.73
76864;BME280;65834;52.364;9.754;2023-02-24T10:19:26;99801.38;;;3.56;77.54
76864;BME280;65834;52.364;9.754;2023-02-24T10:22:06;99802.34;;;3.47;78.55
76864;BME280;65834;52.364;9.754;2023-02-24T10:25:01;99788.63;;;3.42;78.66
76864;BME280;65834;52.364;9.754;2023-02-24T10:27:49;99793.53;;;3.70;78.56
76864;BME280;65834;52.364;9.754;2023-02-24T10:30:32;99793.50;;;3.54;78.74
76864;BME280;65834;52.364;9.754;2023-02-24T10:33:17;99788.78;;;3.40;79.94
76864;BME280;65834;52.364;9.754;2023-02-24T10:36:03;99777.94;;;3.42;79.96
76864;BME280;65834;52.364;9.754;2023-02-24T10:38:38;99770.75;;;3.42;78.88
76864;BME280;65834;52.364;9.754;2023-02-24T10:41:13;99765.13;;;3.69;78.73
76864;BME280;65834;52.364;9.754;2023-02-24T10:43:52;99772.66;;;3.66;78.36
76864;BME280;65834;52.364;9.754;2023-02-24T10:46:25;99753.16;;;4.06;78.58
76864;BME280;65834;52.364;9.754;2023-02-24T10:49:08;99755.81;;;4.06;77.43
76864;BME280;65834;52.364;9.754;2023-02-24T10:51:47;99749.28;;;3.92;78.04
76864;BME280;65834;52.364;9.754;2023-02-24T10:54:23;99740.06;;;3.62;77.78
76864;BME280;65834;52.364;9.754;2023-02-24T10:57:20;99729.56;;;3.77;77.97
76864;BME280;65834;52.364;9.754;2023-02-24T11:00:16;99723.06;;;3.88;78.67
76864;BME280;65834;52.364;9.754;2023-02-24T11:03:06;99716.34;;;3.59;78.43
76864;BME280;65834;52.364;9.754;2023-02-24T11:05:50;99700.28;;;3.67;79.28
76864;BME280;65834;52.364;9.754;2023-02-24T11:08:35;99703.13;;;3.74;79.30
76864;BME280;65834;52.364;9.754;2023-02-24T11:11:14;99687.09;;;3.50;79.75
76864;BME280;65834;52.364;9.754;2023-02-24T11:13:52;99686.56;;;3.54;78.73
76864;BME280;65834;52.364;9.754;2023-02-24T11:16:42;99682.91;;;3.47;79.27
76864;BME280;65834;52.364;9.754;2023-02-24T11:19:27;99672.03;;;3.73;78.25
76864;BME280;65834;52.364;9.754;2023-02-24T11:21:58;99671.72;;;3.52;79.53
76864;BME280;65834;52.364;9.754;2023-02-24T11:24:28;99669.53;;;3.47;79.72
76864;BME280;65834;52.364;9.754;2023-02-24T11:27:02;99658.84;;;3.63;79.23
76864;BME280;65834;52.364;9.754;2023-02-24T11:29:40;99651.50;;;3.49;79.01
76864;BME280;65834;52.364;9.754;2023-02-24T11:32:24;99651.66;;;3.64;79.04
76864;BME280;65834;52.364;9.754;2023-02-24T11:35:02;99636.78;;;3.69;79.07
76864;BME280;65834;52.364;9.754;2023-02-24T11:37:40;99634.13;;;3.77;78.89
76864;BME280;65834;52.364;9.754;2023-02-24T11:40:14;99616.91;;;3.72;77.79
76864;BME280;65834;52.364;9.754;2023-02-24T11:42:54;99626.63;;;3.57;78.87
76864;BME280;65834;52.364;9.754;2023-02-24T11:45:29;99620.59;;;3.55;79.68
76864;BME280;65834;52.364;9.754;2023-02-24T11:48:04;99615.91;;;3.73;79.42
76864;BME280;65834;52.364;9.754;2023-02-24T11:50:39;99601.53;;;3.66;78.43
76864;BME280;65834;52.364;9.754;2023-02-24T11:53:21;99597.22;;;3.41;79.33
76864;BME280;65834;52.364;9.754;2023-02-24T11:55:56;99606.06;;;3.49;79.68
76864;BME280;65834;52.364;9.754;2023-02-24T11:58:36;99598.69;;;3.67;79.87
76864;BME280;65834;52.364;9.754;2023-02-24T12:01:11;99584.66;;;3.49;79.61
76864;BME280;65834;52.364;9.754;2023-02-24T12:03:49;99579.50;;;3.40;80.90
76864;BME280;65834;52.364;9.754;2023-02-24T12:06:24;99579.16;;;3.43;80.87
76864;BME280;65834;52.364;9.754;2023-02-24T12:09:00;99572.81;;;3.36;80.78
76864;BME280;65834;52.364;9.754;2023-02-24T12:11:39;99563.97;;;3.35;80.96
76864;BME280;65834;52.364;9.754;2023-02-24T12:14:21;99559.94;;;3.39;81.39
76864;BME280;65834;52.364;9.754;2023-02-24T12:17:01;99548.09;;;3.34;81.12
76864;BME280;65834;52.364;9.754;2023-02-24T12:19:38;99561.97;;;3.37;81.06
76864;BME280;65834;52.364;9.754;2023-02-24T12:22:14;99549.44;;;3.29;81.25
76864;BME280;65834;52.364;9.754;2023-02-24T12:24:46;99539.91;;;3.27;81.75
76864;BME280;65834;52.364;9.754;2023-02-24T12:27:25;99548.75;;;3.27;82.65
76864;BME280;65834;52.364;9.754;2023-02-24T12:30:16;99543.41;;;3.36;81.91
76864;BME280;65834;52.364;9.754;2023-02-24T12:33:07;99541.59;;;3.44;81.62
76864;BME280;65834;52.364;9.754;2023-02-24T12:35:44;99545.59;;;3.32;82.19
76864;BME280;65834;52.364;9.754;2023-02-24T12:38:27;99537.75;;;3.22;81.78
76864;BME280;65834;52.364;9.754;2023-02-24T12:41:13;99527.53;;;3.42;82.04
76864;BME280;65834;52.364;9.754;2023-02-24T12:43:48;99528.22;;;2.96;82.31
76864;BME280;65834;52.364;9.754;2023-02-24T12:46:24;99526.56;;;3.27;82.47
76864;BME280;65834;52.364;9.754;2023-02-24T12:49:03;99532.41;;;3.31;82.58
76864;BME280;65834;52.364;9.754;2023-02-24T12:51:42;99523.22;;;3.25;82.13
76864;BME280;65834;52.364;9.754;2023-02-24T12:54:21;99523.22;;;3.25;82.75
76864;BME280;65834;52.364;9.754;2023-02-24T12:56:57;99517.22;;;3.07;82.67
76864;BME280;65834;52.364;9.754;2023-02-24T12:59:31;99515.53;;;3.14;82.94
76864;BME280;65834;52.364;9.754;2023-02-24T13:02:11;99507.69;;;3.20;82.85
76864;BME280;65834;52.364;9.754;2023-02-24T13:04:50;99503.84;;;2.99;82.46
76864;BME280;65834;52.364;9.754;2023-02-24T13:07:33;99498.03;;;3.03;82.30
76864;BME280;65834;52.364;9.754;2023-02-24T13:10:15;99495.84;;;2.99;82.88
76864;BME280;65834;52.364;9.754;2023-02-24T13:12:51;99498.03;;;2.95;83.60
76864;BME280;65834;52.364;9.754;2023-02-24T13:15:23;99488.00;;;3.05;83.14
76864;BME280;65834;52.364;9.754;2023-02-24T13:17:59;99480.31;;;2.94;83.26
76864;BME280;65834;52.364;9.754;2023-02-24T13:20:31;99477.97;;;2.99;84.23
76864;BME280;65834;52.364;9.754;2023-02-24T13:23:16;99472.78;;;3.14;83.39
76864;BME280;65834;52.364;9.754;2023-02-24T13:25:50;99464.13;;;3.04;83.28
76864;BME280;65834;52.364;9.754;2023-02-24T13:28:23;99463.63;;;3.00;83.45
76864;BME280;65834;52.364;9.754;2023-02-24T13:30:58;99458.28;;;3.08;83.51
76864;BME280;65834;52.364;9.754;2023-02-24T13:33:33;99456.13;;;3.04;83.90
76864;BME280;65834;52.364;9.754;2023-02-24T13:36:08;99450.41;;;3.15;83.33
76864;BME280;65834;52.364;9.754;2023-02-24T13:38:41;99446.09;;;3.22;83.92
76864;BME280;65834;52.364;9.754;2023-02-24T13:41:34;99439.41;;;3.26;83.78
76864;BME280;65834;52.364;9.754;2023-02-24T13:44:25;99437.56;;;3.18;83.63
76864;BME280;65834;52.364;9.754;2023-02-24T13:47:16;99431.34;;;3.34;83.06
76864;BME280;65834;52.364;9.754;2023-02-24T13:52:51;99430.44;;;3.58;83.02
76864;BME280;65834;52.364;9.754;2023-02-24T13:55:37;99422.06;;;3.69;82.77
76864;BME280;65834;52.364;9.754;2023-02-24T13:58:24;99412.19;;;3.69;81.86
76864;BME280;65834;52.364;9.754;2023-02-24T14:01:05;99413.38;;;3.67;82.22